Wyola, MT

4:18 PM MDT on August 27, 2014 (GMT -0600)
MesoWest Aberdeen Hill I-90 MP 552.3 MT US MT DOT | Change Station
CLOSE
Current Station
Personal Weather Station
Location: Parkman, WY
Elevation: 4101 ft
Nearby Weather Stations

Elev 4101 ft 45.03 °N, 107.32 °W | Updated 37 minutes ago

Clear
Clear
77.0 °F
Feels Like 77.0 °F
N
3.0
Wind Variable Wind from WSW
Gusts 8.0 mph

Today
High -- | Low -- °F
--% Chance of Precip.
Yesterday
High -- | Low -- °F
Precip. -- in
6:25 AM 7:55 PM
Waxing Crescent, 5% visible
Pressure 29.98 in
Visibility 10.0 miles
Clouds Clear
Dew Point 44.0 °F
Humidity 31%
Rainfall 0.00 in
Snow Depth Not available.
UV 6 out of 12
Pollen 8.30 out of 12
Air Quality Not available.
Flu Activity Not available.
METAR KSHR 272153Z AUTO 28006KT 10SM CLR 26/09 A3005 RMK AO2 SLP150 T02560089

More Conditions Fewer Conditions

Pressure 29.98 in
Visibility 10.0 miles
Clouds Clear
Dew Point 44.0 °F
Humidity 31%
Rainfall 0.00 in
Snow Depth Not available.
UV 6 out of 12
Pollen 8.30 out of 12
Air Quality Not available.
Flu Activity Not available.
METAR KSHR 272153Z AUTO 28006KT 10SM CLR 26/09 A3005 RMK AO2 SLP150 T02560089

More Conditions Fewer Conditions

10-Day Weather Forecast

Almanac

Astronomy

Aug. 27, 2014 Rise Set
Actual Time 6:25 AM MDT 7:55 PM MDT
Civil Twilight 5:54 AM MDT 8:25 PM MDT
Nautical Twilight 5:17 AM MDT 9:02 PM MDT
Astronomical Twilight 4:37 AM MDT 9:42 PM MDT
Moon 8:31 AM MDT 8:40 PM MDT
Length of Visible Light 14h 31m
Length of Day
13h 29m
Tomorrow will be 2m 59s shorter.
Waxing Crescent, 5% of the Moon is Illuminated
Today
Waxing Crescent
Sep 2
First Quarter
Sep 8
Full
Sep 15
Last Quarter
Sep 24
New

Today's Extremes

State Highs State Lows

Community

WunderPhotos

Upload Photos

1,747,798 photos uploaded!

Nearby

Snow Depth

Station Depth Elevation
Cole Creek 0 in 7850 ft
White Mill 0 in 8700 ft
Northeast Entrance 1 in 7350 ft
Crystal Lake 0 in 6050 ft
Shower Falls 0 in 8100 ft

Earthquake Activity

City Distance Mag. Time & Date
No recent earthquake activity has been reported nearby.
Minimum magnitude displayed is 2.5.

Coastal Water Temperatures

Place Temperature
No Stations Reporting

Nearby Weather Stations